Time;durP1;ratioP1;P1;durP2;ratioP2;P2;SDS_P1;SDS_P2;PMS_P1;PMS_P2;Temp;Humidity;BMP_temperature;BMP_pressure;BME280_temperature;BME280_humidity;BME280_pressure;Samples;Min_cycle;Max_cycle;Signal;HPM_P1;HPM_P2
2022/05/13 00:01:45;;;;;;;6.5;4.7;;;;;;;19.1;76.82422;941.5139;;;;
2022/05/13 00:04:11;;;;;;;7.2;4.7;;;;;;;19.05;76.9082;941.5276;;;;
2022/05/13 00:06:36;;;;;;;9.9;5;;;;;;;18.77;77.16309;941.4866;;;;
2022/05/13 00:09:01;;;;;;;7.7;5.1;;;;;;;18.83;77.60449;941.4956;;;;
2022/05/13 00:11:30;;;;;;;7;5.1;;;;;;;18.78;77.49023;941.4785;;;;
2022/05/13 00:13:55;;;;;;;6.5;5;;;;;;;18.71;77.57129;941.4692;;;;
2022/05/13 00:16:21;;;;;;;5;4.5;;;;;;;18.75;76.86914;941.4595;;;;
2022/05/13 00:18:46;;;;;;;5.5;5;;;;;;;18.79;76.49121;941.5081;;;;
2022/05/13 00:21:16;;;;;;;5.9;5.3;;;;;;;18.82;76.50977;941.4966;;;;
2022/05/13 00:23:41;;;;;;;6.6;5;;;;;;;18.67;77.6123;941.4786;;;;
2022/05/13 00:26:07;;;;;;;6;5;;;;;;;18.72;77.88867;941.4197;;;;
2022/05/13 00:28:32;;;;;;;7;5;;;;;;;18.78;78.10742;941.4059;;;;
2022/05/13 00:31:03;;;;;;;6.6;5.2;;;;;;;18.83;78.48926;941.3569;;;;
2022/05/13 00:33:25;;;;;;;5.7;5.2;;;;;;;18.82;78.70703;941.3446;;;;
2022/05/13 00:35:52;;;;;;;6.4;5.2;;;;;;;18.82;78.87207;941.3803;;;;
2022/05/13 00:38:17;;;;;;;7.6;5.6;;;;;;;18.81;78.52051;941.3691;;;;
2022/05/13 00:40:43;;;;;;;6.6;5.1;;;;;;;18.84;78.94434;941.4156;;;;
2022/05/13 00:44:32;;;;;;;6.6;5.3;;;;;;;18.87;78.4707;941.4055;;;;
2022/05/13 00:47:53;;;;;;;6.9;4.9;;;;;;;18.8;79.03125;941.4167;;;;
2022/05/13 00:50:24;;;;;;;6.4;5.7;;;;;;;18.69;80.0127;941.4041;;;;
2022/05/13 00:52:48;;;;;;;7.6;5.8;;;;;;;18.6;80.93652;941.3365;;;;
2022/05/13 00:55:18;;;;;;;7.1;5.7;;;;;;;18.57;81.08301;941.4272;;;;
2022/05/13 00:57:42;;;;;;;8.5;6.6;;;;;;;18.58;81.11914;941.4714;;;;
2022/05/13 01:00:08;;;;;;;7.3;5.8;;;;;;;18.69;81.02246;941.4106;;;;
2022/05/13 01:02:34;;;;;;;6.2;5.6;;;;;;;18.61;81.74023;941.4589;;;;
2022/05/13 01:04:58;;;;;;;6.9;6.2;;;;;;;18.46;82.51563;941.4266;;;;
2022/05/13 01:07:24;;;;;;;7.8;6.2;;;;;;;18.38;83.33789;941.4559;;;;
2022/05/13 01:09:49;;;;;;;6.9;6.2;;;;;;;18.42;83.29785;941.4642;;;;
2022/05/13 01:12:16;;;;;;;8;6.1;;;;;;;18.51;82.78027;941.4235;;;;
2022/05/13 01:14:43;;;;;;;7;5.8;;;;;;;18.46;82.5625;941.4266;;;;
2022/05/13 01:19:37;;;;;;;8.2;6.1;;;;;;;18.59;82.50488;941.5035;;;;
2022/05/13 01:22:02;;;;;;;7.9;6.3;;;;;;;18.58;82.33984;941.4086;;;;
2022/05/13 01:24:27;;;;;;;7.3;5.8;;;;;;;18.68;82.05664;941.4309;;;;
2022/05/13 01:26:53;;;;;;;8;5.9;;;;;;;18.65;82.07422;941.4032;;;;
2022/05/13 01:29:20;;;;;;;7.2;5.9;;;;;;;18.55;82.65137;941.5114;;;;
2022/05/13 01:31:45;;;;;;;6;5.4;;;;;;;18.54;81.86719;941.5399;;;;
2022/05/13 01:34:13;;;;;;;6.2;5.5;;;;;;;18.31;82.20996;941.4931;;;;
2022/05/13 01:36:39;;;;;;;12.9;6.1;;;;;;;18.31;82.72949;941.5101;;;;
2022/05/13 01:39:05;;;;;;;7.5;5.9;;;;;;;18.34;82.53906;941.5765;;;;
2022/05/13 01:41:30;;;;;;;8.7;6.2;;;;;;;18.31;82.78809;941.5441;;;;
2022/05/13 01:43:57;;;;;;;6.7;5.6;;;;;;;18.32;83.01367;941.5251;;;;
2022/05/13 01:46:22;;;;;;;6.7;6;;;;;;;18.36;82.98438;941.5392;;;;
2022/05/13 01:48:49;;;;;;;7.2;5.9;;;;;;;18.44;82.74512;941.4995;;;;
2022/05/13 01:53:39;;;;;;;8.3;5.9;;;;;;;18.37;83.29004;941.5204;;;;
2022/05/13 01:56:05;;;;;;;6.3;5.5;;;;;;;18.33;83.76953;941.5678;;;;
2022/05/13 01:58:31;;;;;;;6.4;5.8;;;;;;;18.29;83.99512;941.5659;;;;
2022/05/13 02:00:56;;;;;;;6.4;5.8;;;;;;;18.29;84.28516;941.4363;;;;
2022/05/13 02:05:46;;;;;;;6.1;5.5;;;;;;;18.3;85.05371;941.5385;;;;
2022/05/13 02:08:12;;;;;;;7;6.3;;;;;;;18.38;84.46582;941.4775;;;;
2022/05/13 02:10:37;;;;;;;9.7;6.5;;;;;;;18.32;84.59277;941.5342;;;;
2022/05/13 02:13:02;;;;;;;8;5.9;;;;;;;18.27;85.00293;941.5582;;;;
2022/05/13 02:15:32;;;;;;;7.4;6.1;;;;;;;18.27;85.07227;941.4631;;;;
2022/05/13 02:18:01;;;;;;;7.5;5.7;;;;;;;18.21;84.0957;941.4822;;;;
2022/05/13 02:20:26;;;;;;;7.1;5.9;;;;;;;18.13;84.82324;941.46;;;;
2022/05/13 02:22:52;;;;;;;7.4;6.1;;;;;;;18.09;85.6875;941.4179;;;;
2022/05/13 02:25:17;;;;;;;7.9;5.6;;;;;;;18.14;85.0127;941.389;;;;
2022/05/13 02:27:43;;;;;;;8.4;6.3;;;;;;;18.19;84.21973;941.3649;;;;
2022/05/13 02:30:08;;;;;;;6.9;6;;;;;;;18.2;84.25684;941.3914;;;;
2022/05/13 02:32:36;;;;;;;6.6;5.6;;;;;;;18.26;84.05762;941.3441;;;;
2022/05/13 02:35:01;;;;;;;6.6;5.9;;;;;;;18.21;83.75684;941.3953;;;;
2022/05/13 02:38:15;;;;;;;6.9;6.1;;;;;;;18.23;83.68066;941.3558;;;;
2022/05/13 02:43:12;;;;;;;9;6.2;;;;;;;18.18;84.49512;941.3401;;;;
2022/05/13 02:45:40;;;;;;;7.1;6.1;;;;;;;18.17;84.88867;941.4144;;;;
2022/05/13 02:54:54;;;;;;;9.3;5.8;;;;;;;18.09;84.63086;941.3904;;;;
2022/05/13 02:57:10;;;;;;;7.2;6.2;;;;;;;;;;;;;
2022/05/13 02:59:35;;;;;;;7.9;5.9;;;;;;;;;;;;;
2022/05/13 03:02:01;;;;;;;8.5;6;;;;;;;;;;;;;
2022/05/13 03:04:27;;;;;;;7.3;6.5;;;;;;;;;;;;;
2022/05/13 03:06:53;;;;;;;7.3;6.4;;;;;;;;;;;;;
2022/05/13 03:09:17;;;;;;;12.6;6.7;;;;;;;;;;;;;
2022/05/13 03:11:44;;;;;;;7.3;5.9;;;;;;;;;;;;;
2022/05/13 03:14:09;;;;;;;10.1;6.2;;;;;;;;;;;;;
2022/05/13 03:16:35;;;;;;;6.9;6.2;;;;;;;;;;;;;
2022/05/13 03:19:02;;;;;;;8.1;7;;;;;;;;;;;;;
2022/05/13 03:21:26;;;;;;;8.2;7.1;;;;;;;;;;;;;
2022/05/13 03:23:51;;;;;;;9.4;7.3;;;;;;;;;;;;;
2022/05/13 03:26:16;;;;;;;10;6.6;;;;;;;;;;;;;
2022/05/13 03:28:41;;;;;;;9;7;;;;;;;;;;;;;
2022/05/13 03:31:06;;;;;;;7.3;6.5;;;;;;;;;;;;;
2022/05/13 03:33:33;;;;;;;7.7;6.5;;;;;;;;;;;;;
2022/05/13 03:35:58;;;;;;;7.9;6.4;;;;;;;;;;;;;
2022/05/13 03:38:24;;;;;;;8.5;6.5;;;;;;;;;;;;;
2022/05/13 03:40:49;;;;;;;7.5;6.7;;;;;;;;;;;;;
2022/05/13 03:43:15;;;;;;;8.2;6.9;;;;;;;;;;;;;
2022/05/13 03:45:40;;;;;;;7.6;6.7;;;;;;;;;;;;;
2022/05/13 03:48:05;;;;;;;8.8;6.7;;;;;;;;;;;;;
2022/05/13 03:50:31;;;;;;;8.1;7.1;;;;;;;;;;;;;
2022/05/13 03:52:57;;;;;;;8.8;7.2;;;;;;;;;;;;;
2022/05/13 03:55:22;;;;;;;7.2;6.5;;;;;;;;;;;;;
2022/05/13 03:57:47;;;;;;;6.3;4.8;;;;;;;;;;;;;
2022/05/13 04:02:35;;;;;;;5.5;4.3;;;;;;;17.37;85.07031;941.1844;;;;
2022/05/13 04:09:53;;;;;;;5.3;4.4;;;;;;;17.14;87.78516;941.2527;;;;
2022/05/13 04:17:08;;;;;;;6.8;5.4;;;;;;;17.1;89.47168;941.2676;;;;
2022/05/13 04:19:37;;;;;;;6.3;4.9;;;;;;;17.07;89.8125;941.2792;;;;
2022/05/13 04:22:02;;;;;;;6.2;4.9;;;;;;;17;89.53125;941.295;;;;
2022/05/13 04:24:29;;;;;;;6;5.4;;;;;;;17.05;89.93652;941.3027;;;;
2022/05/13 04:26:54;;;;;;;6.5;4.9;;;;;;;16.99;90.26855;941.2533;;;;
2022/05/13 04:29:19;;;;;;;6.6;4.9;;;;;;;16.92;90.08203;941.2057;;;;
2022/05/13 04:31:48;;;;;;;15.3;11;;;;;;;16.78;90.49219;941.255;;;;
2022/05/13 04:34:13;;;;;;;16.8;10.8;;;;;;;16.69;90.10547;941.3056;;;;
2022/05/13 04:36:41;;;;;;;10.3;7.1;;;;;;;16.71;89.04395;941.3159;;;;
2022/05/13 04:39:11;;;;;;;8.5;6;;;;;;;16.7;89.30762;941.3233;;;;
2022/05/13 04:44:01;;;;;;;7;5.4;;;;;;;16.59;89.7959;941.3124;;;;
2022/05/13 04:46:31;;;;;;;8.1;5.4;;;;;;;16.6;90.05176;941.2279;;;;
2022/05/13 04:48:57;;;;;;;9.8;5.3;;;;;;;16.67;90.44922;941.2905;;;;
2022/05/13 04:51:26;;;;;;;5.9;4.4;;;;;;;16.82;89.8877;941.2775;;;;
2022/05/13 04:53:58;;;;;;;4.8;4.1;;;;;;;16.84;89.52148;941.3247;;;;
2022/05/13 04:56:27;;;;;;;5.4;4;;;;;;;16.88;89.79492;941.3315;;;;
2022/05/13 04:58:52;;;;;;;4.7;3.9;;;;;;;16.91;89.33691;941.3297;;;;
2022/05/13 05:01:19;;;;;;;5.2;4.1;;;;;;;16.87;89.05371;941.3365;;;;
2022/05/13 05:03:45;;;;;;;7.2;4.8;;;;;;;16.62;90.36816;941.3229;;;;
2022/05/13 05:06:15;;;;;;;6;4.4;;;;;;;16.52;91.55176;941.3299;;;;
2022/05/13 05:08:43;;;;;;;7.5;4.8;;;;;;;16.57;90.8916;941.327;;;;
2022/05/13 05:11:08;;;;;;;8.8;4.7;;;;;;;16.72;90.27344;941.2258;;;;
2022/05/13 05:13:37;;;;;;;4.3;3.9;;;;;;;16.82;89.33203;941.2699;;;;
2022/05/13 05:16:02;;;;;;;5.1;4.3;;;;;;;16.88;89.3916;941.2043;;;;
2022/05/13 05:18:28;;;;;;;4.6;3.7;;;;;;;16.84;88.0166;941.274;;;;
2022/05/13 05:20:53;;;;;;;4.6;4.2;;;;;;;16.77;89.36914;941.2503;;;;
2022/05/13 05:23:22;;;;;;;4.5;3.9;;;;;;;16.79;89.16602;941.3128;;;;
2022/05/13 05:25:49;;;;;;;4.4;3.7;;;;;;;16.82;88.33789;941.1592;;;;
2022/05/13 05:31:54;;;;;;;5.2;4.2;;;;;;;16.94;87.99023;941.2296;;;;
2022/05/13 05:34:23;;;;;;;4.4;3.7;;;;;;;17.02;86.56836;941.2593;;;;
2022/05/13 05:36:55;;;;;;;4.5;4.1;;;;;;;17.15;87.18555;941.2413;;;;
2022/05/13 05:39:23;;;;;;;6.1;4.4;;;;;;;17.16;87.32715;941.3031;;;;
2022/05/13 05:41:48;;;;;;;4.9;4;;;;;;;17.15;86.96582;941.2913;;;;
2022/05/13 05:44:19;;;;;;;5.3;4;;;;;;;17.26;87.08008;941.3571;;;;
2022/05/13 05:46:47;;;;;;;4.8;4.1;;;;;;;17.09;87.75098;941.403;;;;
2022/05/13 05:49:15;;;;;;;4.9;4.4;;;;;;;17.13;88.2373;941.437;;;;
2022/05/13 05:51:41;;;;;;;8;4.3;;;;;;;17.04;88.87988;941.438;;;;
2022/05/13 05:59:00;;;;;;;6.8;4.8;;;;;;;17.12;89.93945;941.4758;;;;
2022/05/13 06:01:25;;;;;;;6.5;4.6;;;;;;;17.16;88.98438;941.4955;;;;
2022/05/13 06:03:54;;;;;;;5.8;4.8;;;;;;;16.94;90.19238;941.5691;;;;
2022/05/13 06:06:19;;;;;;;7.7;5.3;;;;;;;16.69;90.92969;941.559;;;;
2022/05/13 06:08:46;;;;;;;8.6;5.3;;;;;;;16.81;91.60059;941.6255;;;;
2022/05/13 06:11:11;;;;;;;8.7;6.6;;;;;;;17.03;89.76855;941.6514;;;;
2022/05/13 06:13:41;;;;;;;4.8;4.3;;;;;;;17.19;88.00488;941.7068;;;;
2022/05/13 06:16:07;;;;;;;5.2;3.9;;;;;;;17.31;87.32031;941.7396;;;;
2022/05/13 06:18:32;;;;;;;7.3;4.4;;;;;;;17.41;87.66504;941.7651;;;;
2022/05/13 06:20:59;;;;;;;5.5;3.7;;;;;;;17.4;87.3291;941.7562;;;;
2022/05/13 06:23:23;;;;;;;5.3;4.3;;;;;;;17.17;88.13965;941.8447;;;;
2022/05/13 06:25:50;;;;;;;7.9;4.4;;;;;;;17.27;87.12793;941.8697;;;;
2022/05/13 06:28:15;;;;;;;5.8;3.8;;;;;;;17.31;86.60156;941.8733;;;;
2022/05/13 06:30:46;;;;;;;4;3.6;;;;;;;17.26;87.05664;941.9567;;;;
2022/05/13 06:33:15;;;;;;;6.6;4.3;;;;;;;17.23;89.3916;941.9691;;;;
2022/05/13 06:35:41;;;;;;;6.4;4.4;;;;;;;17.31;87.61035;941.9973;;;;
2022/05/13 06:38:13;;;;;;;7.1;4.5;;;;;;;17.33;87.88281;941.9664;;;;
2022/05/13 06:40:43;;;;;;;5.8;4;;;;;;;17.45;87.41895;941.9325;;;;
2022/05/13 06:43:14;;;;;;;4.4;4;;;;;;;17.56;87.49902;941.8789;;;;
2022/05/13 06:45:45;;;;;;;4.7;4.2;;;;;;;17.63;87.88477;941.9122;;;;
2022/05/13 06:48:15;;;;;;;5.2;4.2;;;;;;;17.77;87.55176;941.9083;;;;
2022/05/13 06:50:46;;;;;;;5.1;4.2;;;;;;;17.88;86.80859;941.8814;;;;
2022/05/13 06:53:09;;;;;;;6.3;4.1;;;;;;;18.11;86.10938;941.8464;;;;
2022/05/13 06:55:34;;;;;;;4.6;4.2;;;;;;;18.35;85.06445;941.8474;;;;
2022/05/13 06:58:06;;;;;;;4.6;4;;;;;;;18.6;83.03125;941.8373;;;;
2022/05/13 07:00:33;;;;;;;4.3;3.9;;;;;;;18.78;82.33301;941.8109;;;;
2022/05/13 07:02:58;;;;;;;4.8;3.7;;;;;;;18.87;79.65918;941.7758;;;;
2022/05/13 07:05:25;;;;;;;5.1;3.7;;;;;;;19.13;79.1709;941.7966;;;;
2022/05/13 07:07:50;;;;;;;4.6;3.3;;;;;;;19.29;77.98926;941.7785;;;;
2022/05/13 07:10:20;;;;;;;4.8;3.5;;;;;;;18.88;77.20703;941.8078;;;;
2022/05/13 07:12:48;;;;;;;4;3.4;;;;;;;18.77;78.7793;941.7739;;;;
2022/05/13 07:15:13;;;;;;;4.7;3.5;;;;;;;18.82;79.47559;941.8142;;;;
2022/05/13 07:17:42;;;;;;;3.6;3.2;;;;;;;18.85;79.56348;941.8649;;;;
2022/05/13 07:20:06;;;;;;;4.3;3.3;;;;;;;18.91;80.48242;941.884;;;;
2022/05/13 07:22:34;;;;;;;6.3;4.1;;;;;;;18.58;80.01465;941.8739;;;;
2022/05/13 07:24:58;;;;;;;4;3.5;;;;;;;18.78;80.26172;941.6833;;;;
2022/05/13 07:27:26;;;;;;;4.6;3.1;;;;;;;18.83;78.54785;941.7572;;;;
2022/05/13 07:29:51;;;;;;;4.1;3.5;;;;;;;18.59;78.2959;941.7689;;;;
2022/05/13 07:32:18;;;;;;;4.1;3.2;;;;;;;18.58;78.0957;941.8644;;;;
2022/05/13 07:34:43;;;;;;;3.8;3.3;;;;;;;18.61;80.75195;941.855;;;;
2022/05/13 07:37:10;;;;;;;5.7;3.5;;;;;;;18.74;80.11328;941.8502;;;;
2022/05/13 07:42:00;;;;;;;4.4;3.3;;;;;;;18.71;79.19922;941.8394;;;;
2022/05/13 07:44:26;;;;;;;4.7;3.2;;;;;;;18.69;77.86035;941.7913;;;;
2022/05/13 07:46:56;;;;;;;4.4;3.3;;;;;;;18.74;79.46191;941.7429;;;;
2022/05/13 07:49:24;;;;;;;5;3.4;;;;;;;18.95;78.57813;941.6728;;;;
2022/05/13 07:51:50;;;;;;;4.4;3.4;;;;;;;19.1;77.39648;941.7414;;;;
2022/05/13 07:54:19;;;;;;;5.1;3.5;;;;;;;19.3;76.08984;941.688;;;;
2022/05/13 07:56:52;;;;;;;5.2;3;;;;;;;19.62;75.32031;941.5736;;;;
2022/05/13 07:59:19;;;;;;;4.1;3;;;;;;;19.72;72.7832;941.6475;;;;
2022/05/13 08:01:44;;;;;;;5.3;3.2;;;;;;;20.69;72.89551;941.5573;;;;
2022/05/13 08:04:12;;;;;;;4.4;3;;;;;;;21.68;68.12891;941.5978;;;;
2022/05/13 08:06:36;;;;;;;3.6;2.4;;;;;;;22.93;59.46289;941.512;;;;
2022/05/13 08:09:03;;;;;;;5.4;2.7;;;;;;;25.23;54.86133;941.476;;;;
2022/05/13 08:11:28;;;;;;;4.9;2.5;;;;;;;26.02;52.33203;941.4949;;;;
2022/05/13 08:13:56;;;;;;;2.5;1.9;;;;;;;25.01;51.71777;941.4342;;;;
2022/05/13 08:16:21;;;;;;;3.5;2.1;;;;;;;24.48;53.76563;941.3928;;;;
2022/05/13 08:18:46;;;;;;;2.9;2.3;;;;;;;23.47;56.10352;941.3284;;;;
2022/05/13 08:21:12;;;;;;;3.5;2.4;;;;;;;22.55;59.20215;941.4144;;;;
2022/05/13 08:23:37;;;;;;;3;2.4;;;;;;;23.64;54.84082;941.3767;;;;
2022/05/13 08:26:05;;;;;;;3.4;2.7;;;;;;;23.97;54.33008;941.3393;;;;
2022/05/13 08:28:30;;;;;;;2.3;2.1;;;;;;;23.3;55.51758;941.3633;;;;
2022/05/13 08:30:59;;;;;;;2.4;1.9;;;;;;;22.78;55.62793;941.3708;;;;
2022/05/13 08:33:24;;;;;;;2.2;2;;;;;;;22.43;56.91113;941.2972;;;;
2022/05/13 08:35:53;;;;;;;2.6;2.1;;;;;;;23.35;55.53418;941.3192;;;;
2022/05/13 08:38:19;;;;;;;2.4;2.2;;;;;;;23.16;57.62695;941.2703;;;;
2022/05/13 08:41:03;;;;;;;2.5;2.1;;;;;;;22.82;58.05273;941.23;;;;
2022/05/13 08:43:29;;;;;;;3.2;2.2;;;;;;;24.77;55.53516;941.2672;;;;
2022/05/13 08:45:54;;;;;;;3.5;2.2;;;;;;;25.68;51.12207;941.1329;;;;
2022/05/13 08:48:20;;;;;;;2.6;2;;;;;;;26.71;49.53418;941.142;;;;
2022/05/13 08:50:46;;;;;;;3.9;1.9;;;;;;;28.04;47.1748;941.096;;;;
2022/05/13 08:53:16;;;;;;;2;1.9;;;;;;;27.72;47.04688;941.1008;;;;
2022/05/13 08:55:48;;;;;;;1.5;1.4;;;;;;;28.21;44.24512;941.0695;;;;
2022/05/13 08:58:13;;;;;;;3.4;1.5;;;;;;;26.82;46.37109;941.0605;;;;
2022/05/13 09:00:39;;;;;;;1.8;1.2;;;;;;;26.47;48.24219;941.0298;;;;
2022/05/13 09:03:03;;;;;;;1.4;1.3;;;;;;;26.68;46.37988;941.0007;;;;
2022/05/13 09:05:29;;;;;;;2.3;1.6;;;;;;;26.15;48.18262;941.0204;;;;
2022/05/13 09:07:57;;;;;;;3.2;1.6;;;;;;;27.38;46.00098;941.0298;;;;
2022/05/13 09:10:22;;;;;;;2.7;1.9;;;;;;;27.06;45.31836;941.0128;;;;
2022/05/13 09:12:48;;;;;;;2.4;2;;;;;;;27.79;42.28027;940.9241;;;;
2022/05/13 09:15:13;;;;;;;2.6;1.5;;;;;;;28.09;43.4248;940.8954;;;;
2022/05/13 09:17:38;;;;;;;2.4;1.9;;;;;;;26.81;43.01758;940.8223;;;;
2022/05/13 09:20:04;;;;;;;2.2;2;;;;;;;26.39;46.24414;940.9167;;;;
2022/05/13 09:22:34;;;;;;;2.1;2;;;;;;;25.83;48.73828;940.9158;;;;
2022/05/13 09:25:00;;;;;;;3.6;2.1;;;;;;;25.25;50.42383;940.9045;;;;
2022/05/13 09:27:25;;;;;;;2;1.9;;;;;;;24.31;51.4248;940.9336;;;;
2022/05/13 09:29:53;;;;;;;2.8;1.9;;;;;;;23.52;55.03809;940.9169;;;;
2022/05/13 09:32:18;;;;;;;2.2;2;;;;;;;22.83;55.77539;940.9045;;;;
2022/05/13 09:34:43;;;;;;;3.5;2;;;;;;;22.74;56.23242;940.8395;;;;
2022/05/13 09:37:10;;;;;;;2.2;1.8;;;;;;;22.51;57.56543;940.8038;;;;
2022/05/13 09:39:36;;;;;;;2.1;1.9;;;;;;;22.25;57.34473;940.8281;;;;
2022/05/13 09:42:04;;;;;;;2.2;2;;;;;;;22.18;58.13281;940.8307;;;;
2022/05/13 09:44:29;;;;;;;3;2.1;;;;;;;21.96;58.4082;940.85;;;;
2022/05/13 09:46:56;;;;;;;2.9;2.2;;;;;;;22.28;59.66895;940.8929;;;;
2022/05/13 09:49:21;;;;;;;3.2;2.5;;;;;;;21.72;63.76367;940.9233;;;;
2022/05/13 09:51:46;;;;;;;3.4;2.7;;;;;;;21.71;65.64941;940.9565;;;;
2022/05/13 09:54:11;;;;;;;3;2.7;;;;;;;21.91;64.57617;940.9601;;;;
2022/05/13 09:56:36;;;;;;;3.7;3.2;;;;;;;21.77;64.56836;940.9501;;;;
2022/05/13 09:59:02;;;;;;;3.4;3;;;;;;;21.62;65.03906;941.0336;;;;
2022/05/13 10:01:28;;;;;;;3.8;3.2;;;;;;;21.72;64.0459;941.0317;;;;
2022/05/13 10:03:52;;;;;;;4.8;3;;;;;;;21.62;65.49609;941.0287;;;;
2022/05/13 10:06:19;;;;;;;3.7;2.7;;;;;;;21.73;65.21875;940.9805;;;;
2022/05/13 10:08:45;;;;;;;3.6;2.8;;;;;;;21.8;64.32617;941.045;;;;
2022/05/13 10:16:02;;;;;;;4.3;2.9;;;;;;;22.21;62.88574;941.0236;;;;
2022/05/13 10:18:27;;;;;;;6.2;2.7;;;;;;;22.15;62.47754;940.9306;;;;
2022/05/13 10:20:53;;;;;;;4.7;2.9;;;;;;;22.3;62.01855;941.0366;;;;
2022/05/13 10:23:18;;;;;;;3.9;2.9;;;;;;;22.32;61.91602;941.0108;;;;
2022/05/13 10:25:43;;;;;;;3.4;2.7;;;;;;;22.45;61.44141;941.0295;;;;
2022/05/13 10:28:08;;;;;;;3.7;2.5;;;;;;;22.51;60.78027;941.0538;;;;
2022/05/13 10:30:33;;;;;;;3.8;2.5;;;;;;;22.49;62.18555;941.1039;;;;
2022/05/13 10:32:58;;;;;;;4.7;2.8;;;;;;;22.46;62.21582;941.0934;;;;
2022/05/13 10:35:24;;;;;;;4.8;2.8;;;;;;;22.33;63.99316;941.1442;;;;
2022/05/13 10:37:48;;;;;;;3.1;2.8;;;;;;;21.33;68.0498;941.1379;;;;
2022/05/13 10:40:17;;;;;;;4.5;3.1;;;;;;;21.55;68.63477;941.0446;;;;
2022/05/13 10:42:42;;;;;;;4.2;3.1;;;;;;;21.89;68.3584;940.9673;;;;
2022/05/13 10:45:12;;;;;;;3.2;2.6;;;;;;;22.41;65.90527;940.99;;;;
2022/05/13 10:47:42;;;;;;;2.8;2.6;;;;;;;22.64;64.46094;940.9872;;;;
2022/05/13 10:50:10;;;;;;;3.6;2.9;;;;;;;22.87;63.45996;940.9558;;;;
2022/05/13 10:52:36;;;;;;;2.8;2.6;;;;;;;23.04;61.41699;940.9091;;;;
2022/05/13 10:55:01;;;;;;;3.5;2.6;;;;;;;23.15;61.60742;940.9255;;;;
2022/05/13 10:57:26;;;;;;;3.5;2.8;;;;;;;23.3;60.125;940.9894;;;;
2022/05/13 10:59:51;;;;;;;3.8;2.7;;;;;;;23.43;59.90723;940.9697;;;;
2022/05/13 11:02:16;;;;;;;2.8;2.6;;;;;;;23.48;61.30078;940.9997;;;;
2022/05/13 11:04:41;;;;;;;3;2.7;;;;;;;23.27;61.47168;940.9961;;;;
2022/05/13 11:07:06;;;;;;;5.4;2.8;;;;;;;23.12;61.96777;941.0183;;;;
2022/05/13 11:09:31;;;;;;;3.3;2.6;;;;;;;22.93;62.31836;940.9897;;;;
2022/05/13 11:11:59;;;;;;;3.2;2.7;;;;;;;22.95;61.53418;941.0783;;;;
2022/05/13 11:14:26;;;;;;;2.6;2.4;;;;;;;22.75;62.12891;941.1249;;;;
2022/05/13 11:16:50;;;;;;;7.2;3.5;;;;;;;21.66;65.46777;941.1494;;;;
2022/05/13 11:19:15;;;;;;;5;3.6;;;;;;;20.95;70.62402;941.1163;;;;
2022/05/13 11:21:40;;;;;;;6.8;3.4;;;;;;;20.61;73.08105;941.1763;;;;
2022/05/13 11:26:35;;;;;;;4.1;3.4;;;;;;;19.77;76.97754;941.1834;;;;
2022/05/13 11:28:59;;;;;;;3.2;2.9;;;;;;;19.55;77.41699;941.267;;;;
2022/05/13 11:31:24;;;;;;;2.9;2.6;;;;;;;19.39;76.02441;941.3293;;;;
2022/05/13 11:33:49;;;;;;;2.7;2;;;;;;;19.18;75.98828;941.2169;;;;
2022/05/13 11:36:18;;;;;;;3.2;1.9;;;;;;;18.7;77.59277;941.2047;;;;
2022/05/13 11:38:43;;;;;;;3.4;3.1;;;;;;;18.66;81.61133;941.2255;;;;
2022/05/13 11:41:10;;;;;;;4.1;3.6;;;;;;;18.79;83.9502;941.3024;;;;
2022/05/13 11:43:34;;;;;;;4.1;3.4;;;;;;;18.91;83.45996;941.4031;;;;
2022/05/13 11:45:59;;;;;;;4.3;3.4;;;;;;;19.1;82.79785;941.5041;;;;
2022/05/13 11:48:24;;;;;;;4.1;3.7;;;;;;;19.41;81.9248;941.5583;;;;
2022/05/13 11:50:51;;;;;;;3.4;3.1;;;;;;;19.57;80.59082;941.538;;;;
2022/05/13 11:53:16;;;;;;;3.8;3.1;;;;;;;19.76;79.85449;941.6525;;;;
2022/05/13 11:55:41;;;;;;;3.4;2.7;;;;;;;19.67;78.24121;941.5864;;;;
2022/05/13 11:58:07;;;;;;;2.8;2.5;;;;;;;19.72;77.24805;941.5636;;;;
2022/05/13 12:00:35;;;;;;;4.3;3;;;;;;;19.43;77.61621;941.6939;;;;
2022/05/13 12:03:01;;;;;;;2.7;2.5;;;;;;;19.53;79.0791;941.6848;;;;
2022/05/13 12:05:39;;;;;;;2.5;2.3;;;;;;;19.47;77.41309;941.7328;;;;
2022/05/13 12:08:07;;;;;;;2.6;2.4;;;;;;;19.73;77.22754;941.6795;;;;
2022/05/13 12:10:29;;;;;;;2.5;2.2;;;;;;;19.92;75.91797;941.6842;;;;
2022/05/13 12:12:54;;;;;;;3.5;2.9;;;;;;;20.14;74.69434;941.6944;;;;
2022/05/13 12:15:23;;;;;;;4.4;2.6;;;;;;;20.23;75.17773;941.7225;;;;
2022/05/13 12:17:48;;;;;;;3.7;2.3;;;;;;;20.7;74.49805;941.7271;;;;
2022/05/13 12:23:00;;;;;;;2.3;1.9;;;;;;;21.78;68.1084;941.6682;;;;
2022/05/13 12:25:26;;;;;;;3.5;2.3;;;;;;;22.12;66.70605;941.6788;;;;
2022/05/13 12:27:51;;;;;;;2.9;2;;;;;;;22.28;65.48633;941.6871;;;;
2022/05/13 12:30:16;;;;;;;3.1;2.1;;;;;;;22.3;65.37305;941.7619;;;;
2022/05/13 12:32:55;;;;;;;3;2;;;;;;;22.36;64.10352;941.7227;;;;
2022/05/13 12:37:53;;;;;;;2.4;2.2;;;;;;;22.04;64.54883;941.808;;;;
2022/05/13 12:40:22;;;;;;;2.3;2.1;;;;;;;22.06;64.6582;941.8102;;;;
2022/05/13 12:42:49;;;;;;;3.8;2.4;;;;;;;21.6;66.25293;941.822;;;;
2022/05/13 12:45:20;;;;;;;6.7;2.6;;;;;;;21.51;66.68555;941.8463;;;;
2022/05/13 12:47:46;;;;;;;3.6;2.3;;;;;;;21.64;65.61523;941.8226;;;;
2022/05/13 12:50:12;;;;;;;2.4;2.2;;;;;;;21.35;67.15234;941.89;;;;
2022/05/13 12:52:37;;;;;;;3.8;2.3;;;;;;;21.51;66.39258;941.8276;;;;
2022/05/13 12:55:02;;;;;;;2.4;2.2;;;;;;;21.68;66.07813;941.7999;;;;
2022/05/13 12:57:27;;;;;;;4.1;2.2;;;;;;;21.77;65.38867;941.8005;;;;
2022/05/13 12:59:52;;;;;;;2.4;2.2;;;;;;;21.62;65.91602;941.798;;;;
2022/05/13 13:02:23;;;;;;;2.6;2.3;;;;;;;21.57;65.97949;941.8569;;;;
2022/05/13 13:04:48;;;;;;;3.5;2.4;;;;;;;21.68;66.11328;941.7983;;;;
2022/05/13 13:07:14;;;;;;;3.2;2.2;;;;;;;21.67;66.4043;941.7653;;;;
2022/05/13 13:09:52;;;;;;;2.6;2.3;;;;;;;21.57;67.11523;941.7458;;;;
2022/05/13 13:12:16;;;;;;;2.5;2.3;;;;;;;21.77;66.73535;941.6595;;;;
2022/05/13 13:14:42;;;;;;;3.9;2.7;;;;;;;21.89;66.50879;941.688;;;;
2022/05/13 13:17:08;;;;;;;3.2;2.8;;;;;;;21.65;66.1084;941.739;;;;
2022/05/13 13:19:35;;;;;;;7.3;2.8;;;;;;;21.7;66.35156;941.6752;;;;
2022/05/13 13:22:00;;;;;;;4;2.4;;;;;;;22.09;64.24023;941.6844;;;;
2022/05/13 13:24:25;;;;;;;2.9;2.6;;;;;;;22.12;64.41992;941.7111;;;;
2022/05/13 13:26:50;;;;;;;3.9;2.4;;;;;;;22.35;62.74219;941.6841;;;;
2022/05/13 13:29:15;;;;;;;2.4;2.1;;;;;;;22.44;61.88672;941.6516;;;;
2022/05/13 13:31:41;;;;;;;2.9;2.6;;;;;;;22.45;61.72363;941.5863;;;;
2022/05/13 13:34:06;;;;;;;3.3;2.5;;;;;;;22.43;62.38867;941.561;;;;
2022/05/13 13:36:31;;;;;;;3.6;2.7;;;;;;;22.32;62.9248;941.5975;;;;
2022/05/13 13:38:56;;;;;;;2.8;2.5;;;;;;;22.08;63.33496;941.5193;;;;
2022/05/13 13:41:21;;;;;;;2.5;2.3;;;;;;;22.09;63.30371;941.5066;;;;
2022/05/13 13:43:49;;;;;;;3.1;2.5;;;;;;;21.89;64.08301;941.5064;;;;
2022/05/13 13:46:14;;;;;;;4.7;2.4;;;;;;;21.93;64.62891;941.4906;;;;
2022/05/13 13:48:39;;;;;;;3.8;2.3;;;;;;;21.71;65.37988;941.4682;;;;
2022/05/13 13:51:04;;;;;;;4.8;2.7;;;;;;;21.78;65.14355;941.476;;;;
2022/05/13 13:53:29;;;;;;;2.2;2;;;;;;;21.71;64.85352;941.4537;;;;
2022/05/13 13:55:56;;;;;;;4;3.4;;;;;;;21.52;65.71387;941.4012;;;;
2022/05/13 13:58:22;;;;;;;3.1;2.7;;;;;;;21.55;66.04883;941.4009;;;;
2022/05/13 14:00:46;;;;;;;3.2;2.7;;;;;;;21.67;66.27539;941.3544;;;;
2022/05/13 14:03:15;;;;;;;2.9;2.6;;;;;;;21.72;65.66113;941.3633;;;;
2022/05/13 14:05:40;;;;;;;5.5;4.4;;;;;;;21.62;66.70215;941.4056;;;;
2022/05/13 14:08:05;;;;;;;3.2;2.9;;;;;;;21.83;65.95996;941.3597;;;;
2022/05/13 14:10:32;;;;;;;3.8;3.1;;;;;;;21.94;64.60645;941.3653;;;;
2022/05/13 14:12:57;;;;;;;3.7;2.6;;;;;;;21.92;63.48926;941.3497;;;;
2022/05/13 14:15:25;;;;;;;3.4;2.5;;;;;;;21.75;65.11621;941.2725;;;;
2022/05/13 14:17:50;;;;;;;4.5;2.5;;;;;;;21.32;66.7373;941.2922;;;;
2022/05/13 14:20:15;;;;;;;3.7;2.5;;;;;;;21.36;66.91992;941.3016;;;;
2022/05/13 14:22:41;;;;;;;3.6;2.6;;;;;;;21.46;66.50195;941.3258;;;;
2022/05/13 14:25:09;;;;;;;4.4;2.7;;;;;;;21.58;66.06445;941.3508;;;;
2022/05/13 14:27:34;;;;;;;3;2.7;;;;;;;21.6;66.42969;941.3308;;;;
2022/05/13 14:30:01;;;;;;;3.3;2.7;;;;;;;21.7;66.72559;941.3088;;;;
2022/05/13 14:32:27;;;;;;;4.7;3;;;;;;;21.83;66.1123;941.3248;;;;
2022/05/13 14:34:52;;;;;;;4;2.9;;;;;;;21.99;65.09375;941.3322;;;;
2022/05/13 14:37:17;;;;;;;4.1;2.9;;;;;;;22.15;65.04688;941.276;;;;
2022/05/13 14:39:51;;;;;;;2.6;2.4;;;;;;;22.19;65.45117;941.2385;;;;
2022/05/13 14:42:07;;;;;;;3.8;3.2;;;;;;;21.89;66.6377;941.293;;;;
2022/05/13 14:44:32;;;;;;;3.4;3;;;;;;;21.8;65.86133;941.2509;;;;
2022/05/13 14:47:00;;;;;;;3.5;2.6;;;;;;;21.74;66.33301;941.2559;;;;
2022/05/13 14:49:25;;;;;;;4.3;3.1;;;;;;;21.67;66.63965;941.2902;;;;
2022/05/13 14:51:50;;;;;;;3.2;2.7;;;;;;;21.77;65.43555;941.2654;;;;
2022/05/13 14:54:18;;;;;;;3.9;3.4;;;;;;;21.71;65.55566;941.2242;;;;
2022/05/13 14:56:45;;;;;;;4;3.2;;;;;;;21.7;64.96875;941.2681;;;;
2022/05/13 14:59:10;;;;;;;4.7;3.4;;;;;;;21.65;64.71387;941.2528;;;;
2022/05/13 15:01:39;;;;;;;3.8;3.4;;;;;;;21.64;65.73242;941.2626;;;;
2022/05/13 15:04:04;;;;;;;6;3.8;;;;;;;21.6;65.99512;941.2224;;;;
2022/05/13 15:06:32;;;;;;;4;3.6;;;;;;;21.63;66.61133;941.2816;;;;
2022/05/13 15:08:57;;;;;;;3.8;3.1;;;;;;;21.85;65.68164;941.1353;;;;
2022/05/13 15:11:24;;;;;;;4.4;3.1;;;;;;;21.92;64.80176;941.2039;;;;
2022/05/13 15:13:49;;;;;;;4.5;2.9;;;;;;;22.01;64.88477;941.18;;;;
2022/05/13 15:16:20;;;;;;;5.2;3.1;;;;;;;22.13;64.50391;941.16;;;;
2022/05/13 15:18:45;;;;;;;4;3.3;;;;;;;22.24;65.22266;941.2592;;;;
2022/05/13 15:21:16;;;;;;;3.6;3.3;;;;;;;22.27;65.1582;941.2379;;;;
2022/05/13 15:23:48;;;;;;;3.7;3;;;;;;;22.4;64.30859;941.3068;;;;
2022/05/13 15:26:16;;;;;;;4.5;3.3;;;;;;;22.23;65.97168;941.3008;;;;
2022/05/13 15:28:41;;;;;;;3.6;3.3;;;;;;;22.14;64.50586;941.2813;;;;
2022/05/13 15:31:06;;;;;;;4.4;3.4;;;;;;;22.1;64.86328;941.3077;;;;
2022/05/13 15:33:35;;;;;;;3.9;3.5;;;;;;;21.78;64.65332;941.2595;;;;
2022/05/13 15:36:01;;;;;;;4.3;3.6;;;;;;;21.7;64.90918;941.2433;;;;
2022/05/13 15:38:30;;;;;;;4.4;3.5;;;;;;;21.78;65.41406;941.2715;;;;